Time;durP1;ratioP1;P1;durP2;ratioP2;P2;SDS_P1;SDS_P2;PMS_P1;PMS_P2;Temp;Humidity;BMP_temperature;BMP_pressure;BME280_temperature;BME280_humidity;BME280_pressure;Samples;Min_cycle;Max_cycle;Signal;HPM_P1;HPM_P2
2022/08/09 00:02:08;;;;;;;7.90;3.78;;;19.10;63.30;;;;;;5013391;28;20418;-65
2022/08/09 00:04:35;;;;;;;7.45;3.72;;;19.10;63.80;;;;;;5012400;28;20666;-66
2022/08/09 00:07:03;;;;;;;6.60;3.70;;;19.10;63.30;;;;;;4999331;28;20430;-65
2022/08/09 00:09:30;;;;;;;8.88;3.63;;;19.10;63.70;;;;;;4981472;28;20777;-65
2022/08/09 00:11:57;;;;;;;4.75;3.67;;;19.00;63.70;;;;;;4979939;28;20088;-65
2022/08/09 00:14:24;;;;;;;6.88;3.70;;;18.90;64.60;;;;;;5023584;28;20053;-66
2022/08/09 00:16:51;;;;;;;6.82;3.58;;;19.00;64.30;;;;;;5018600;28;20041;-65
2022/08/09 00:19:18;;;;;;;5.78;3.88;;;18.80;64.80;;;;;;5023651;28;20070;-66
2022/08/09 00:21:45;;;;;;;7.65;4.03;;;18.70;64.90;;;;;;4981254;28;20049;-66
2022/08/09 00:24:12;;;;;;;5.85;3.20;;;18.50;65.30;;;;;;5003783;28;20045;-65
2022/08/09 00:26:39;;;;;;;6.35;4.15;;;18.50;65.40;;;;;;4998989;28;20687;-65
2022/08/09 00:29:06;;;;;;;8.18;4.15;;;18.60;65.40;;;;;;5009686;28;20064;-65
2022/08/09 00:31:33;;;;;;;5.15;3.67;;;18.60;65.30;;;;;;4997677;28;20056;-65
2022/08/09 00:34:00;;;;;;;6.50;3.30;;;18.60;65.20;;;;;;5015573;28;20046;-65
2022/08/09 00:36:27;;;;;;;6.00;3.30;;;18.60;64.70;;;;;;5014849;28;20057;-66
2022/08/09 00:38:54;;;;;;;8.18;3.55;;;18.70;65.60;;;;;;5013038;28;20049;-66
2022/08/09 00:41:21;;;;;;;6.80;3.47;;;18.60;65.50;;;;;;5018490;28;20059;-66
2022/08/09 00:43:49;;;;;;;8.20;3.85;;;18.60;65.30;;;;;;4996192;28;20060;-65
2022/08/09 00:46:16;;;;;;;7.57;3.72;;;18.50;66.30;;;;;;5011653;28;20065;-64
2022/08/09 00:48:44;;;;;;;6.68;3.50;;;18.50;65.90;;;;;;4996667;28;20116;-65
2022/08/09 00:51:11;;;;;;;6.38;3.90;;;18.40;66.20;;;;;;4981686;28;20050;-65
2022/08/09 00:53:38;;;;;;;8.93;4.20;;;18.40;66.70;;;;;;5015708;28;20069;-65
2022/08/09 00:56:09;;;;;;;6.27;3.70;;;18.40;67.10;;;;;;5013852;28;20050;-66
2022/08/09 00:58:36;;;;;;;7.13;3.92;;;18.30;66.90;;;;;;5009471;28;20277;-65
2022/08/09 01:01:11;;;;;;;6.32;3.42;;;18.40;66.80;;;;;;5005537;28;20056;-65
2022/08/09 01:03:58;;;;;;;7.03;4.00;;;18.40;67.10;;;;;;5014451;28;20080;-65
2022/08/09 01:06:51;;;;;;;6.13;4.03;;;18.40;66.30;;;;;;5022005;28;20071;-64
2022/08/09 01:09:35;;;;;;;6.68;3.92;;;18.40;66.40;;;;;;5051028;28;20502;-64
2022/08/09 01:12:36;;;;;;;5.47;3.65;;;18.40;66.20;;;;;;4999949;28;20191;-65
2022/08/09 01:15:11;;;;;;;6.22;4.00;;;18.40;66.60;;;;;;5009187;28;20050;-65
2022/08/09 01:18:05;;;;;;;5.22;3.70;;;18.20;67.80;;;;;;4996448;28;20054;-65
2022/08/09 01:20:49;;;;;;;7.93;3.65;;;18.10;68.00;;;;;;5013976;28;20480;-65
2022/08/09 01:23:42;;;;;;;5.75;3.70;;;18.10;67.80;;;;;;5017319;28;20143;-65
2022/08/09 01:26:45;;;;;;;6.75;3.70;;;18.20;67.60;;;;;;5010014;28;20470;-67
2022/08/09 01:29:13;;;;;;;6.68;3.58;;;18.10;67.60;;;;;;5016571;28;20133;-65
2022/08/09 01:31:40;;;;;;;5.72;3.60;;;18.20;67.50;;;;;;5018151;28;20057;-65
2022/08/09 01:34:07;;;;;;;7.50;3.80;;;18.10;68.10;;;;;;4998722;28;20056;-64
2022/08/09 01:36:34;;;;;;;6.13;3.80;;;18.10;68.20;;;;;;5011991;28;20048;-65
2022/08/09 01:39:01;;;;;;;5.88;3.53;;;18.00;68.70;;;;;;5023129;28;20052;-66
2022/08/09 01:41:31;;;;;;;7.20;3.95;;;17.90;68.80;;;;;;5021850;28;20491;-64
2022/08/09 01:44:03;;;;;;;5.45;3.90;;;17.90;69.10;;;;;;5014460;28;20049;-66
2022/08/09 01:46:35;;;;;;;5.43;3.92;;;17.80;69.30;;;;;;5017288;28;20464;-64
2022/08/09 01:49:20;;;;;;;6.75;4.60;;;17.70;69.50;;;;;;5015492;28;20056;-66
2022/08/09 01:51:50;;;;;;;7.38;4.03;;;17.70;69.10;;;;;;5008164;28;20050;-68
2022/08/09 01:54:17;;;;;;;7.47;3.88;;;17.70;68.90;;;;;;5008893;28;20046;-65
2022/08/09 01:56:45;;;;;;;6.63;3.45;;;17.60;69.70;;;;;;4983892;28;20053;-65
2022/08/09 01:59:15;;;;;;;10.27;4.05;;;17.60;69.50;;;;;;5013614;28;20537;-63
2022/08/09 02:01:42;;;;;;;9.45;4.00;;;17.70;69.70;;;;;;5025184;28;20099;-64
2022/08/09 02:04:09;;;;;;;6.18;3.63;;;17.70;69.80;;;;;;5026270;28;20104;-65
2022/08/09 02:09:22;;;;;;;6.22;3.83;;;17.70;69.30;;;;;;5019932;28;20049;-64
2022/08/09 02:11:49;;;;;;;7.50;3.58;;;17.60;69.60;;;;;;4984323;28;20085;-65
2022/08/09 02:14:16;;;;;;;7.50;4.05;;;17.60;69.90;;;;;;5009356;28;20068;-65
2022/08/09 02:16:42;;;;;;;6.47;4.13;;;17.60;70.50;;;;;;5023012;28;20049;-65
2022/08/09 02:19:09;;;;;;;5.90;4.40;;;17.40;71.00;;;;;;5015402;28;20049;-64
2022/08/09 02:21:43;;;;;;;5.50;3.90;;;17.30;70.50;;;;;;5019623;28;20049;-66
2022/08/09 02:24:11;;;;;;;6.75;3.85;;;17.40;71.20;;;;;;4995954;28;21205;-65
2022/08/09 02:26:38;;;;;;;5.87;3.73;;;17.40;71.00;;;;;;5010068;28;20463;-70
2022/08/09 02:29:18;;;;;;;5.40;3.72;;;17.30;71.50;;;;;;5013179;28;20256;-66
2022/08/09 02:31:45;;;;;;;9.02;4.05;;;17.30;71.20;;;;;;5008365;28;20060;-66
2022/08/09 02:34:16;;;;;;;4.72;3.85;;;17.30;71.30;;;;;;5021517;28;20038;-65
2022/08/09 02:36:45;;;;;;;5.18;3.75;;;17.10;72.20;;;;;;5015340;28;20052;-66
2022/08/09 02:39:17;;;;;;;7.47;3.97;;;17.10;71.60;;;;;;5011114;28;20041;-66
2022/08/09 02:41:57;;;;;;;4.78;3.60;;;17.20;71.20;;;;;;5011357;28;20064;-64
2022/08/09 02:44:25;;;;;;;9.05;4.00;;;17.20;72.10;;;;;;5014122;28;20045;-66
2022/08/09 02:46:53;;;;;;;5.83;3.63;;;17.20;72.00;;;;;;5007004;28;20041;-66
2022/08/09 02:49:20;;;;;;;5.40;3.65;;;17.20;71.70;;;;;;5019439;28;20052;-71
2022/08/09 02:51:55;;;;;;;6.03;4.15;;;17.20;71.70;;;;;;5014269;28;20520;-71
2022/08/09 02:54:22;;;;;;;6.13;4.43;;;17.30;71.70;;;;;;5001792;28;20052;-71
2022/08/09 02:56:50;;;;;;;8.70;3.95;;;17.20;71.50;;;;;;4995379;28;20049;-71
2022/08/09 02:59:18;;;;;;;5.28;3.78;;;17.10;72.40;;;;;;5019783;28;20057;-71
2022/08/09 03:01:45;;;;;;;6.25;3.40;;;17.00;72.60;;;;;;5017270;28;20061;-71
2022/08/09 03:04:12;;;;;;;7.90;3.67;;;17.00;72.90;;;;;;5002531;28;20137;-71
2022/08/09 03:06:40;;;;;;;5.93;3.75;;;17.00;72.90;;;;;;5013835;28;20057;-71
2022/08/09 03:09:07;;;;;;;5.03;3.53;;;17.00;73.40;;;;;;5020025;28;20387;-71
2022/08/09 03:11:33;;;;;;;5.38;3.78;;;16.90;73.30;;;;;;5038056;28;20061;-71
2022/08/09 03:14:00;;;;;;;6.45;3.90;;;16.90;73.40;;;;;;5000167;28;20046;-70
2022/08/09 03:16:27;;;;;;;6.25;3.83;;;16.90;73.70;;;;;;5023672;28;20128;-71
2022/08/09 03:18:54;;;;;;;8.60;3.97;;;16.90;72.90;;;;;;5000594;28;20576;-70
2022/08/09 03:21:21;;;;;;;5.85;3.53;;;17.00;72.90;;;;;;4988585;28;20133;-72
2022/08/09 03:23:49;;;;;;;6.00;4.05;;;17.00;72.60;;;;;;5042087;28;20045;-72
2022/08/09 03:26:19;;;;;;;5.75;3.75;;;17.00;72.50;;;;;;5044599;28;20079;-70
2022/08/09 03:28:47;;;;;;;6.80;4.22;;;17.00;73.00;;;;;;5015624;28;20073;-71
2022/08/09 03:31:15;;;;;;;5.65;3.67;;;16.90;72.80;;;;;;5020272;28;20046;-70
2022/08/09 03:33:42;;;;;;;7.80;4.30;;;16.80;73.50;;;;;;4989601;28;20049;-70
2022/08/09 03:36:09;;;;;;;6.53;4.40;;;16.70;74.00;;;;;;5017754;28;20056;-70
2022/08/09 03:38:40;;;;;;;7.10;4.53;;;16.60;75.00;;;;;;4997340;28;20045;-69
2022/08/09 03:41:07;;;;;;;5.53;3.78;;;16.50;74.90;;;;;;5004960;28;20049;-70
2022/08/09 03:43:34;;;;;;;5.38;3.85;;;16.60;74.20;;;;;;4987644;28;20046;-70
2022/08/09 03:46:01;;;;;;;7.32;4.47;;;16.60;74.40;;;;;;4978280;28;20475;-69
2022/08/09 03:48:28;;;;;;;8.35;4.32;;;16.70;74.10;;;;;;5045412;28;20053;-70
2022/08/09 03:50:55;;;;;;;9.57;4.30;;;16.70;74.00;;;;;;5005777;28;20068;-69
2022/08/09 03:53:22;;;;;;;6.47;3.70;;;16.70;73.60;;;;;;5014165;28;20537;-69
2022/08/09 03:55:48;;;;;;;7.57;4.30;;;16.60;74.30;;;;;;5021141;28;20124;-71
2022/08/09 03:58:15;;;;;;;6.32;4.18;;;16.60;74.50;;;;;;5010089;28;20060;-70
2022/08/09 04:00:43;;;;;;;10.50;4.55;;;16.50;74.70;;;;;;5019989;28;20076;-70
2022/08/09 04:03:10;;;;;;;6.50;3.75;;;16.60;74.80;;;;;;5055455;28;20073;-70
2022/08/09 04:05:37;;;;;;;7.97;4.30;;;16.60;74.10;;;;;;5041398;28;20045;-71
2022/08/09 04:08:04;;;;;;;7.82;4.00;;;16.70;73.60;;;;;;5000588;28;21144;-71
2022/08/09 04:10:31;;;;;;;8.57;4.20;;;16.70;73.70;;;;;;5018680;28;20095;-70
2022/08/09 04:12:59;;;;;;;7.20;4.25;;;16.70;74.00;;;;;;5014403;28;20491;-71
2022/08/09 04:15:27;;;;;;;6.30;4.00;;;16.60;74.30;;;;;;5014693;28;20050;-71
2022/08/09 04:17:54;;;;;;;6.13;4.38;;;16.50;74.50;;;;;;4972695;28;20124;-70
2022/08/09 04:20:21;;;;;;;7.70;4.72;;;16.60;74.50;;;;;;5017731;28;20490;-72
2022/08/09 04:22:48;;;;;;;6.13;3.83;;;16.50;74.90;;;;;;5011409;28;20061;-70
2022/08/09 04:25:15;;;;;;;5.82;4.60;;;16.50;74.80;;;;;;5015320;28;20046;-69
2022/08/09 04:27:42;;;;;;;7.32;4.28;;;16.50;75.40;;;;;;5013954;28;20124;-70
2022/08/09 04:30:14;;;;;;;7.15;4.50;;;16.50;75.00;;;;;;5010076;28;20045;-70
2022/08/09 04:32:41;;;;;;;7.03;3.97;;;16.60;74.60;;;;;;5022110;28;20045;-70
2022/08/09 04:35:09;;;;;;;9.50;3.90;;;16.60;74.60;;;;;;5014702;28;20084;-70
2022/08/09 04:37:36;;;;;;;;;;;16.50;74.80;;;;;;5000565;28;20037;-70
2022/08/09 04:40:04;;;;;;;5.10;3.78;;;16.50;74.60;;;;;;4994024;28;19967;-70
2022/08/09 04:42:32;;;;;;;6.63;4.15;;;16.50;75.40;;;;;;5013570;28;20049;-70
2022/08/09 04:44:59;;;;;;;6.22;4.15;;;16.50;75.60;;;;;;5018174;28;20061;-70
2022/08/09 04:47:27;;;;;;;5.97;4.55;;;16.50;74.80;;;;;;5043142;28;20446;-71
2022/08/09 04:49:54;;;;;;;7.53;4.05;;;16.60;75.50;;;;;;5014486;28;20076;-70
2022/08/09 04:52:22;;;;;;;8.05;4.25;;;16.60;75.40;;;;;;5013940;28;20049;-71
2022/08/09 04:54:50;;;;;;;5.88;3.75;;;16.60;75.10;;;;;;4999426;28;20057;-71
2022/08/09 04:57:17;;;;;;;7.13;4.45;;;16.60;75.00;;;;;;5015075;28;20046;-71
2022/08/09 04:59:43;;;;;;;5.90;3.85;;;16.50;75.00;;;;;;4996109;28;20049;-70
2022/08/09 05:02:10;;;;;;;9.43;4.38;;;16.50;75.50;;;;;;5015246;28;20045;-71
2022/08/09 05:04:37;;;;;;;8.73;4.40;;;16.50;75.60;;;;;;5060234;28;20471;-71
2022/08/09 05:07:04;;;;;;;5.80;4.72;;;16.40;75.70;;;;;;5019527;28;20806;-70
2022/08/09 05:09:31;;;;;;;6.25;4.10;;;16.30;76.90;;;;;;5019221;28;20052;-71
2022/08/09 05:11:58;;;;;;;6.20;4.07;;;16.30;77.10;;;;;;5017070;28;20041;-70
2022/08/09 05:14:25;;;;;;;8.50;4.18;;;16.50;77.00;;;;;;5020883;28;20057;-71
2022/08/09 05:16:52;;;;;;;7.28;4.20;;;16.60;76.50;;;;;;5007648;28;20048;-70
2022/08/09 05:19:20;;;;;;;7.05;3.80;;;16.60;76.10;;;;;;5027903;28;20045;-70
2022/08/09 05:21:47;;;;;;;8.80;4.97;;;16.60;76.60;;;;;;5020993;28;20045;-71
2022/08/09 05:24:14;;;;;;;7.47;4.05;;;16.60;76.10;;;;;;5019929;28;20045;-71
2022/08/09 05:26:41;;;;;;;5.70;4.25;;;16.70;75.90;;;;;;5019863;28;20471;-71
2022/08/09 05:29:09;;;;;;;8.55;4.40;;;16.80;75.70;;;;;;4995105;28;20115;-71
2022/08/09 05:31:36;;;;;;;5.57;4.00;;;16.90;75.40;;;;;;4993186;28;20064;-70
2022/08/09 05:34:04;;;;;;;7.75;4.88;;;16.90;75.20;;;;;;5035942;28;20103;-70
2022/08/09 05:36:30;;;;;;;7.70;4.10;;;16.90;74.90;;;;;;4972509;28;20045;-70
2022/08/09 05:38:57;;;;;;;8.95;4.65;;;16.90;75.00;;;;;;5018414;28;20041;-70
2022/08/09 05:41:24;;;;;;;6.78;4.55;;;16.90;75.50;;;;;;5021470;28;20667;-71
2022/08/09 05:43:51;;;;;;;5.57;3.90;;;16.90;75.10;;;;;;5021804;28;20048;-70
2022/08/09 05:46:18;;;;;;;8.80;3.90;;;16.80;75.80;;;;;;4982261;28;20529;-70
2022/08/09 05:48:45;;;;;;;8.60;4.18;;;16.90;75.50;;;;;;5020828;28;20068;-70
2022/08/09 05:51:12;;;;;;;8.63;4.82;;;16.90;75.70;;;;;;5003509;28;20045;-70
2022/08/09 05:53:39;;;;;;;6.93;3.90;;;16.90;75.00;;;;;;5016556;28;20041;-70
2022/08/09 05:56:08;;;;;;;7.25;4.03;;;17.00;74.90;;;;;;4994378;28;20741;-70
2022/08/09 05:58:35;;;;;;;9.32;4.10;;;17.10;74.90;;;;;;5022296;28;20132;-70
2022/08/09 06:01:01;;;;;;;7.32;4.13;;;17.10;75.00;;;;;;5004723;28;20051;-69
2022/08/09 06:03:28;;;;;;;7.72;3.70;;;17.10;74.90;;;;;;5021967;28;20590;-70
2022/08/09 06:05:54;;;;;;;6.82;3.58;;;17.20;75.40;;;;;;5012177;28;20081;-69
2022/08/09 06:08:20;;;;;;;9.75;3.88;;;17.20;75.50;;;;;;5005477;28;20461;-69
2022/08/09 06:10:48;;;;;;;7.13;4.10;;;17.30;75.50;;;;;;5016924;28;20348;-69
2022/08/09 06:13:16;;;;;;;5.25;3.58;;;17.30;75.40;;;;;;5002955;28;20037;-70
2022/08/09 06:15:45;;;;;;;7.72;3.55;;;17.40;74.60;;;;;;5023973;28;20144;-70
2022/08/09 06:18:10;;;;;;;;;;;17.40;74.50;;;;;;5004920;28;20038;-70
2022/08/09 06:20:38;;;;;;;6.05;3.40;;;17.50;74.30;;;;;;5052698;28;19927;-70
2022/08/09 06:23:05;;;;;;;5.55;2.95;;;17.60;74.00;;;;;;5020496;28;20050;-70
2022/08/09 06:25:32;;;;;;;6.65;3.35;;;17.70;74.20;;;;;;5008023;28;20072;-70
2022/08/09 06:27:59;;;;;;;7.95;3.33;;;17.70;74.00;;;;;;5005407;28;20069;-70
2022/08/09 06:30:26;;;;;;;7.93;3.22;;;17.80;74.00;;;;;;5017048;28;20088;-70
2022/08/09 06:32:54;;;;;;;7.93;3.40;;;17.80;73.90;;;;;;5012939;28;20053;-69
2022/08/09 06:35:20;;;;;;;6.15;3.05;;;17.90;73.50;;;;;;5018639;28;20076;-69
2022/08/09 06:37:47;;;;;;;5.70;3.08;;;18.00;73.60;;;;;;5013035;28;20042;-69
2022/08/09 06:40:14;;;;;;;5.53;2.80;;;18.00;73.30;;;;;;5016260;28;20046;-69
2022/08/09 06:42:41;;;;;;;5.75;3.50;;;18.10;73.50;;;;;;5022202;28;20041;-70
2022/08/09 06:45:09;;;;;;;10.03;3.80;;;18.10;73.50;;;;;;5034926;28;20038;-69
2022/08/09 06:47:36;;;;;;;6.85;3.42;;;18.20;73.30;;;;;;5021438;28;20050;-70
2022/08/09 06:50:05;;;;;;;8.02;3.67;;;18.30;73.50;;;;;;5015316;28;20054;-69
2022/08/09 06:52:33;;;;;;;11.27;3.58;;;18.30;72.90;;;;;;5041103;28;20055;-69
2022/08/09 06:55:01;;;;;;;8.40;3.40;;;18.40;73.20;;;;;;4997379;28;20167;-70
2022/08/09 06:57:28;;;;;;;;;;;18.40;72.90;;;;;;5017490;28;20050;-71
2022/08/09 06:59:55;;;;;;;6.82;3.22;;;18.50;72.80;;;;;;5038943;28;19939;-71
2022/08/09 07:02:22;;;;;;;8.13;3.40;;;18.60;73.10;;;;;;5008222;28;20076;-71
2022/08/09 07:04:49;;;;;;;6.75;3.20;;;18.70;72.60;;;;;;4997479;28;20160;-71
2022/08/09 07:07:15;;;;;;;7.10;3.33;;;18.70;72.70;;;;;;5006602;28;20467;-71
2022/08/09 07:09:43;;;;;;;6.20;3.50;;;18.80;72.70;;;;;;5019123;28;20152;-70
2022/08/09 07:12:10;;;;;;;7.60;3.13;;;18.80;72.30;;;;;;5001861;28;20045;-71
2022/08/09 07:14:37;;;;;;;7.90;2.80;;;18.90;72.20;;;;;;5011772;28;20049;-70
2022/08/09 07:17:03;;;;;;;5.13;3.22;;;19.00;72.20;;;;;;5035838;28;20079;-70
2022/08/09 07:19:30;;;;;;;8.18;3.47;;;19.10;72.10;;;;;;5046173;28;20033;-71
2022/08/09 07:21:57;;;;;;;6.97;2.83;;;19.10;72.20;;;;;;4994924;28;20042;-72
2022/08/09 07:24:25;;;;;;;5.90;3.20;;;19.20;71.80;;;;;;5005942;28;20190;-70
2022/08/09 07:26:52;;;;;;;8.43;3.13;;;19.30;71.30;;;;;;5000401;28;20428;-70
2022/08/09 07:29:19;;;;;;;6.53;3.08;;;19.40;71.30;;;;;;5027539;28;20458;-70
2022/08/09 07:31:48;;;;;;;10.77;3.80;;;19.40;71.20;;;;;;5043549;28;20558;-70
2022/08/09 07:34:15;;;;;;;5.00;3.13;;;19.50;70.90;;;;;;5022743;28;20045;-71
2022/08/09 07:36:43;;;;;;;7.60;3.13;;;19.60;70.90;;;;;;5018944;28;20102;-70
2022/08/09 07:39:09;;;;;;;6.75;3.10;;;19.60;70.50;;;;;;5019735;28;20045;-70
2022/08/09 07:41:36;;;;;;;6.97;3.10;;;19.70;70.50;;;;;;5007500;28;20041;-70
2022/08/09 07:44:04;;;;;;;10.30;3.08;;;19.80;69.70;;;;;;5008897;28;20545;-70
2022/08/09 07:46:31;;;;;;;5.07;2.88;;;19.90;68.90;;;;;;5011623;28;20045;-70
2022/08/09 07:48:58;;;;;;;7.80;3.22;;;20.00;68.60;;;;;;5021621;28;20041;-70
2022/08/09 07:51:25;;;;;;;7.70;3.10;;;20.10;68.00;;;;;;5028221;28;20045;-70
2022/08/09 07:53:53;;;;;;;5.05;2.90;;;20.10;67.90;;;;;;5021250;28;20137;-69
2022/08/09 07:56:20;;;;;;;5.07;3.17;;;20.20;67.50;;;;;;5005086;28;20045;-70
2022/08/09 07:58:47;;;;;;;6.65;2.72;;;20.20;67.20;;;;;;5016384;28;20047;-69
2022/08/09 08:01:14;;;;;;;5.93;2.73;;;20.30;67.00;;;;;;5021273;28;20122;-71
2022/08/09 08:03:41;;;;;;;8.02;3.30;;;20.40;67.00;;;;;;5014362;28;20056;-68
2022/08/09 08:06:08;;;;;;;6.78;2.80;;;20.40;66.70;;;;;;5026191;28;20079;-70
2022/08/09 08:08:35;;;;;;;6.32;3.03;;;20.50;66.60;;;;;;5021539;28;20115;-70
2022/08/09 08:11:03;;;;;;;6.70;3.13;;;20.60;66.60;;;;;;5005717;28;20105;-70
2022/08/09 08:13:30;;;;;;;6.57;3.10;;;20.60;66.20;;;;;;5011981;28;20392;-70
2022/08/09 08:15:57;;;;;;;8.15;2.90;;;20.70;65.80;;;;;;4997575;28;20803;-71
2022/08/09 08:18:24;;;;;;;9.85;3.85;;;20.70;65.20;;;;;;5022917;28;20558;-71
2022/08/09 08:20:51;;;;;;;10.00;3.35;;;20.80;65.10;;;;;;5022737;28;20052;-70
2022/08/09 08:23:19;;;;;;;8.10;3.75;;;20.90;64.10;;;;;;5030797;28;20041;-69
2022/08/09 08:25:47;;;;;;;6.20;2.80;;;21.00;64.40;;;;;;5001851;28;20054;-70
2022/08/09 08:28:13;;;;;;;3.85;2.80;;;21.00;63.90;;;;;;5026662;28;20053;-70
2022/08/09 08:30:41;;;;;;;5.95;3.08;;;21.10;62.80;;;;;;4993421;28;20049;-69
2022/08/09 08:33:08;;;;;;;5.03;2.60;;;21.10;62.10;;;;;;5032353;28;20387;-70
2022/08/09 08:35:34;;;;;;;5.22;2.55;;;21.30;62.60;;;;;;5019680;28;20124;-70
2022/08/09 08:38:01;;;;;;;5.63;2.63;;;21.30;62.30;;;;;;4997693;28;20037;-70
2022/08/09 08:40:28;;;;;;;8.82;3.10;;;21.30;61.00;;;;;;5002643;28;20071;-69
2022/08/09 08:42:55;;;;;;;12.07;3.10;;;21.40;60.70;;;;;;4987327;28;20038;-71
2022/08/09 08:45:28;;;;;;;5.80;2.75;;;21.40;60.80;;;;;;5021739;28;20045;-70
2022/08/09 08:47:55;;;;;;;6.78;2.90;;;21.50;61.70;;;;;;5020233;28;20380;-71
2022/08/09 08:50:22;;;;;;;6.15;2.67;;;21.60;61.00;;;;;;5009302;28;20042;-70
2022/08/09 08:52:51;;;;;;;7.13;2.78;;;21.70;57.70;;;;;;5021542;28;20380;-69
2022/08/09 08:55:18;;;;;;;11.20;2.95;;;21.70;56.90;;;;;;5024584;28;20045;-68
2022/08/09 08:57:45;;;;;;;7.25;2.70;;;21.80;56.40;;;;;;5003982;28;20045;-69
2022/08/09 09:00:13;;;;;;;6.35;3.00;;;21.80;58.40;;;;;;4974119;28;20052;-68
2022/08/09 09:02:40;;;;;;;4.60;2.60;;;21.90;57.50;;;;;;5019711;28;20050;-70
2022/08/09 09:05:08;;;;;;;5.97;2.80;;;22.00;58.00;;;;;;5004254;28;20288;-68
2022/08/09 09:07:35;;;;;;;6.60;2.70;;;22.00;56.10;;;;;;4986886;28;20073;-69
2022/08/09 09:10:02;;;;;;;6.18;2.47;;;22.10;57.40;;;;;;5025008;28;20125;-68
2022/08/09 09:12:30;;;;;;;5.63;2.90;;;22.20;57.70;;;;;;4994289;28;20088;-68
2022/08/09 09:14:58;;;;;;;6.75;2.80;;;22.30;56.40;;;;;;4990141;28;20081;-69
2022/08/09 09:17:25;;;;;;;5.22;2.70;;;22.30;56.10;;;;;;5007683;28;20084;-70
2022/08/09 09:19:53;;;;;;;5.40;2.63;;;22.40;56.20;;;;;;5038272;28;20124;-70
2022/08/09 09:22:20;;;;;;;4.00;2.72;;;22.40;56.30;;;;;;5040886;28;20045;-68
2022/08/09 09:24:53;;;;;;;4.28;2.50;;;22.50;56.00;;;;;;5010674;28;20056;-70
2022/08/09 09:27:25;;;;;;;4.32;2.70;;;22.60;56.10;;;;;;5021585;28;20203;-69
2022/08/09 09:29:53;;;;;;;5.30;2.58;;;22.60;55.60;;;;;;5052925;28;20065;-68
2022/08/09 09:32:24;;;;;;;4.97;2.30;;;22.70;55.90;;;;;;5011263;28;20088;-68
2022/08/09 09:35:10;;;;;;;4.88;2.67;;;22.80;56.10;;;;;;4996918;28;20052;-68
2022/08/09 09:37:40;;;;;;;5.53;2.40;;;22.80;55.70;;;;;;5041351;28;20061;-69
2022/08/09 09:40:08;;;;;;;6.22;2.60;;;22.90;54.90;;;;;;5012092;28;20838;-69
2022/08/09 09:42:36;;;;;;;3.30;2.28;;;22.90;54.60;;;;;;5020500;28;20111;-69
2022/08/09 09:45:05;;;;;;;4.45;2.70;;;23.00;54.20;;;;;;5008280;28;20490;-69
2022/08/09 09:47:33;;;;;;;5.40;2.63;;;23.00;54.00;;;;;;5019694;28;20049;-70
2022/08/09 09:50:01;;;;;;;3.92;2.60;;;23.10;53.30;;;;;;5024312;28;20073;-70
2022/08/09 09:52:28;;;;;;;3.38;2.30;;;23.20;54.90;;;;;;5007822;28;20079;-69
2022/08/09 09:55:06;;;;;;;3.83;2.40;;;23.40;54.40;;;;;;5022965;28;20487;-69
2022/08/09 09:57:33;;;;;;;6.47;2.38;;;23.50;53.70;;;;;;5018014;28;20053;-69
2022/08/09 10:00:00;;;;;;;7.15;2.65;;;23.60;53.50;;;;;;5023704;28;20104;-69
2022/08/09 10:02:28;;;;;;;5.03;3.03;;;23.70;52.80;;;;;;5015668;28;20064;-69
2022/08/09 10:05:07;;;;;;;3.92;2.50;;;23.70;53.30;;;;;;5019901;28;20131;-69
2022/08/09 10:07:35;;;;;;;3.60;2.20;;;23.70;53.00;;;;;;5022689;28;20527;-68
2022/08/09 10:10:02;;;;;;;6.07;2.50;;;23.70;52.90;;;;;;5020680;28;20077;-68
2022/08/09 10:12:34;;;;;;;5.20;2.65;;;23.70;53.30;;;;;;4995173;28;20045;-69
2022/08/09 10:15:17;;;;;;;4.18;2.35;;;23.80;53.80;;;;;;5014972;28;20045;-69
2022/08/09 10:17:51;;;;;;;7.30;2.42;;;23.90;53.60;;;;;;5025086;28;20356;-68
2022/08/09 10:20:19;;;;;;;6.28;2.63;;;24.20;51.80;;;;;;5013933;28;20056;-68
2022/08/09 10:22:48;;;;;;;7.82;2.88;;;24.30;52.10;;;;;;5020191;28;20102;-68
2022/08/09 10:25:17;;;;;;;4.40;2.42;;;24.30;52.60;;;;;;5001427;28;20399;-68
2022/08/09 10:27:43;;;;;;;7.40;2.13;;;24.40;51.50;;;;;;5053777;28;20483;-69
2022/08/09 10:30:10;;;;;;;4.75;2.35;;;24.50;50.60;;;;;;5007884;28;20089;-68
2022/08/09 10:32:37;;;;;;;4.95;2.38;;;24.60;51.40;;;;;;5024833;28;20083;-69
2022/08/09 10:35:05;;;;;;;12.23;2.60;;;24.70;50.60;;;;;;4997910;28;20096;-69
2022/08/09 10:37:32;;;;;;;6.90;2.47;;;24.80;51.80;;;;;;5021455;28;20072;-70
2022/08/09 10:40:00;;;;;;;6.43;2.13;;;24.90;50.90;;;;;;5013589;28;20050;-68
2022/08/09 10:42:27;;;;;;;6.93;2.42;;;24.90;51.20;;;;;;5017783;28;20079;-68
2022/08/09 10:45:04;;;;;;;4.88;2.40;;;24.90;50.50;;;;;;5002923;28;20511;-67
2022/08/09 10:47:56;;;;;;;5.75;2.60;;;24.90;49.70;;;;;;5008541;28;20164;-68
2022/08/09 10:53:58;;;;;;;5.15;2.30;;;24.60;48.60;;;;;;5018499;28;20056;-68
2022/08/09 10:56:30;;;;;;;5.28;2.30;;;24.50;50.30;;;;;;5019742;28;20040;-68
2022/08/09 10:58:57;;;;;;;4.55;2.60;;;24.70;51.20;;;;;;5024955;28;20441;-69
2022/08/09 11:01:37;;;;;;;8.18;2.53;;;24.90;50.00;;;;;;5014769;28;20045;-69
2022/08/09 11:04:20;;;;;;;5.78;2.53;;;25.10;49.10;;;;;;5024721;28;20194;-69
2022/08/09 11:06:56;;;;;;;6.13;2.63;;;25.10;49.10;;;;;;4997016;28;20060;-68
2022/08/09 11:09:50;;;;;;;5.43;2.40;;;25.30;48.10;;;;;;5033976;28;20063;-68
2022/08/09 11:12:23;;;;;;;5.60;2.50;;;25.40;48.70;;;;;;5010626;28;20049;-68
2022/08/09 11:14:56;;;;;;;5.28;2.60;;;25.60;49.20;;;;;;5021494;28;20037;-68
2022/08/09 11:17:25;;;;;;;5.03;2.65;;;25.70;47.10;;;;;;5023429;28;20056;-69
2022/08/09 11:20:11;;;;;;;4.30;2.50;;;25.80;46.90;;;;;;5016532;28;20474;-68
2022/08/09 11:22:43;;;;;;;5.70;2.30;;;25.80;47.80;;;;;;5023231;28;20045;-69
2022/08/09 11:25:15;;;;;;;4.57;2.03;;;25.90;48.10;;;;;;5018773;28;20169;-68
2022/08/09 11:27:42;;;;;;;4.18;2.40;;;26.00;47.60;;;;;;5005806;28;20053;-69
2022/08/09 11:30:31;;;;;;;5.68;2.40;;;26.10;49.10;;;;;;4987965;28;20376;-68
2022/08/09 11:33:29;;;;;;;9.75;2.55;;;26.10;47.30;;;;;;5026071;28;20061;-72
2022/08/09 11:35:58;;;;;;;7.60;2.15;;;26.20;46.70;;;;;;5012667;28;20056;-69
2022/08/09 11:38:27;;;;;;;5.22;2.50;;;26.30;48.40;;;;;;5019898;28;20541;-69
2022/08/09 11:40:54;;;;;;;5.65;2.53;;;26.30;46.60;;;;;;5025197;28;20467;-69
2022/08/09 11:43:32;;;;;;;4.95;2.42;;;26.20;47.40;;;;;;4991117;28;20045;-68
2022/08/09 11:46:03;;;;;;;6.70;2.20;;;26.10;46.30;;;;;;5023938;28;20078;-68
2022/08/09 11:48:49;;;;;;;6.35;2.78;;;25.90;45.50;;;;;;5019311;28;20046;-68
2022/08/09 11:51:17;;;;;;;5.50;2.03;;;25.70;45.80;;;;;;5024583;28;20049;-69
2022/08/09 11:53:45;;;;;;;6.30;2.13;;;25.80;46.70;;;;;;4991873;28;20069;-69
2022/08/09 11:56:19;;;;;;;8.90;2.45;;;25.90;47.50;;;;;;5005834;28;20038;-68
2022/08/09 11:58:53;;;;;;;3.70;2.35;;;26.00;47.00;;;;;;5024246;28;20065;-69
2022/08/09 12:01:43;;;;;;;5.45;2.30;;;26.10;46.80;;;;;;4990170;28;20069;-69
2022/08/09 12:04:15;;;;;;;5.88;2.22;;;26.30;45.20;;;;;;5025292;28;20049;-69
2022/08/09 12:06:52;;;;;;;4.55;2.20;;;26.40;46.20;;;;;;5003772;28;20459;-68
2022/08/09 12:09:25;;;;;;;6.13;2.28;;;26.30;45.40;;;;;;5004340;28;20057;-68
2022/08/09 12:12:01;;;;;;;5.63;2.63;;;26.40;46.00;;;;;;5022558;28;20050;-69
2022/08/09 12:14:49;;;;;;;4.68;2.50;;;26.40;45.00;;;;;;4999966;28;20041;-68
2022/08/09 12:17:17;;;;;;;3.35;2.20;;;26.20;45.80;;;;;;5012490;28;20833;-69
2022/08/09 12:19:43;;;;;;;3.13;2.30;;;26.20;46.80;;;;;;5015500;28;20100;-69
2022/08/09 12:22:11;;;;;;;4.65;2.53;;;26.20;46.10;;;;;;5026042;28;20080;-69
2022/08/09 12:24:41;;;;;;;4.95;2.35;;;26.00;46.30;;;;;;5020190;28;20343;-69
2022/08/09 12:27:08;;;;;;;4.32;2.15;;;26.10;46.70;;;;;;5013139;28;20052;-66
2022/08/09 12:29:36;;;;;;;5.72;2.10;;;26.20;45.70;;;;;;5000776;28;20104;-65
2022/08/09 12:32:04;;;;;;;3.13;1.98;;;26.30;46.90;;;;;;5038830;28;20048;-65
2022/08/09 12:34:39;;;;;;;4.13;2.20;;;26.50;46.50;;;;;;5059306;28;20041;-66
2022/08/09 12:37:07;;;;;;;3.33;1.90;;;26.70;46.00;;;;;;5010796;28;20076;-65
2022/08/09 12:39:34;;;;;;;4.85;2.40;;;26.90;45.00;;;;;;5023138;28;20045;-66
2022/08/09 12:42:13;;;;;;;3.33;2.17;;;26.90;44.00;;;;;;5019211;28;20041;-65
2022/08/09 12:44:40;;;;;;;4.65;2.10;;;27.10;43.70;;;;;;5027240;28;20107;-64
2022/08/09 12:47:08;;;;;;;6.47;2.08;;;27.10;43.80;;;;;;5041228;28;20052;-64
2022/08/09 12:49:35;;;;;;;4.05;2.15;;;27.20;44.20;;;;;;5016563;28;20097;-63
2022/08/09 12:52:03;;;;;;;3.35;2.22;;;27.00;44.00;;;;;;5021122;28;20642;-65
2022/08/09 12:54:51;;;;;;;3.33;2.00;;;26.90;43.40;;;;;;5014501;28;20427;-65
2022/08/09 12:57:41;;;;;;;3.85;2.10;;;26.70;44.00;;;;;;5041018;28;20041;-63
2022/08/09 13:00:20;;;;;;;3.22;2.17;;;26.50;44.70;;;;;;5043442;28;20084;-65
2022/08/09 13:03:05;;;;;;;3.45;2.08;;;26.50;45.70;;;;;;4999773;28;20366;-64
2022/08/09 13:05:47;;;;;;;3.50;2.25;;;26.40;45.10;;;;;;5022012;28;20083;-64
2022/08/09 13:08:17;;;;;;;6.50;2.22;;;26.50;44.60;;;;;;5012102;28;20045;-64